Time;durP1;ratioP1;P1;durP2;ratioP2;P2;SDS_P1;SDS_P2;PMS_P1;PMS_P2;Temp;Humidity;BMP_temperature;BMP_pressure;BME280_temperature;BME280_humidity;BME280_pressure;Samples;Min_cycle;Max_cycle;Signal;HPM_P1;HPM_P2
2022/01/19 00:01:18;;;;;;;;;;;5.30;99.90;;;;;;6108288;23;19962;-94
2022/01/19 00:03:44;;;;;;;;;;;5.30;99.90;;;;;;6142182;23;19913;-92
2022/01/19 00:06:12;;;;;;;;;;;5.30;99.90;;;;;;6141112;23;19913;-93
2022/01/19 00:08:38;;;;;;;;;;;5.40;99.90;;;;;;6141910;23;19913;-92
2022/01/19 00:11:04;;;;;;;;;;;5.30;99.90;;;;;;6132274;23;19912;-93
2022/01/19 00:13:30;;;;;;;;;;;5.40;99.90;;;;;;6141684;23;19909;-92
2022/01/19 00:15:55;;;;;;;;;;;5.30;99.90;;;;;;6141756;23;19909;-92
2022/01/19 00:18:22;;;;;;;;;;;5.30;99.90;;;;;;6143761;23;19996;-92
2022/01/19 00:20:48;;;;;;;;;;;5.40;99.90;;;;;;6144856;23;20245;-92
2022/01/19 00:23:16;;;;;;;;;;;5.30;99.90;;;;;;6148974;23;19912;-93
2022/01/19 00:25:42;;;;;;;;;;;5.30;99.90;;;;;;6144331;23;20369;-91
2022/01/19 00:28:07;;;;;;;;;;;5.40;99.90;;;;;;6143574;23;19916;-92
2022/01/19 00:30:33;;;;;;;;;;;5.30;99.90;;;;;;6143466;23;20222;-94
2022/01/19 00:32:58;;;;;;;;;;;5.40;99.90;;;;;;6144975;23;19909;-93
2022/01/19 00:35:25;;;;;;;;;;;5.40;99.90;;;;;;6167934;23;20345;-93
2022/01/19 00:37:51;;;;;;;;;;;5.30;99.90;;;;;;6134916;23;19916;-94
2022/01/19 00:40:22;;;;;;;;;;;5.30;99.90;;;;;;6147653;23;19960;-95
2022/01/19 00:42:54;;;;;;;;;;;5.30;99.90;;;;;;6140994;23;20345;-95
2022/01/19 00:45:22;;;;;;;;;;;5.30;99.90;;;;;;6137529;23;19913;-94
2022/01/19 00:47:48;;;;;;;;;;;5.30;99.90;;;;;;6144748;23;19912;-93
2022/01/19 00:50:18;;;;;;;;;;;5.30;99.90;;;;;;6132945;23;20333;-95
2022/01/19 00:52:46;;;;;;;;;;;5.30;99.90;;;;;;6096375;23;19919;-94
2022/01/19 00:55:15;;;;;;;;;;;5.30;99.90;;;;;;6130135;23;19912;-92
2022/01/19 00:57:41;;;;;;;;;;;5.30;99.90;;;;;;6149772;23;19920;-92
2022/01/19 01:00:09;;;;;;;;;;;5.40;99.90;;;;;;6147208;23;19917;-92
2022/01/19 01:02:36;;;;;;;;;;;5.40;99.90;;;;;;6145514;23;20164;-93
2022/01/19 01:05:02;;;;;;;;;;;5.30;99.90;;;;;;6136186;23;20257;-93
2022/01/19 01:07:30;;;;;;;;;;;5.30;99.90;;;;;;6132622;23;19916;-92
2022/01/19 01:10:00;;;;;;;;;;;5.30;99.90;;;;;;6158663;23;19920;-93
2022/01/19 01:12:43;;;;;;;;;;;5.30;99.90;;;;;;6135588;23;20528;-92
2022/01/19 01:15:27;;;;;;;;;;;5.30;99.90;;;;;;6145662;23;19976;-92
2022/01/19 01:20:28;;;;;;;;;;;5.40;99.90;;;;;;6147016;23;20337;-93
2022/01/19 01:22:56;;;;;;;;;;;5.40;99.90;;;;;;6149863;23;19975;-93
2022/01/19 01:25:22;;;;;;;;;;;5.40;99.90;;;;;;6147200;23;19936;-93
2022/01/19 01:27:48;;;;;;;;;;;5.40;99.90;;;;;;6144762;23;19912;-92
2022/01/19 01:30:14;;;;;;;;;;;5.40;99.90;;;;;;6143186;23;19928;-92
2022/01/19 01:32:39;;;;;;;;;;;5.40;99.90;;;;;;6144309;23;19924;-93
2022/01/19 01:35:05;;;;;;;;;;;5.40;99.90;;;;;;6169607;23;19919;-90
2022/01/19 01:37:31;;;;;;;;;;;5.40;99.90;;;;;;6143565;23;19939;-95
2022/01/19 01:39:57;;;;;;;;;;;5.40;99.90;;;;;;6143472;23;19948;-93
2022/01/19 01:42:24;;;;;;;;;;;5.30;99.90;;;;;;6144093;23;19913;-92
2022/01/19 01:44:55;;;;;;;;;;;5.40;99.90;;;;;;6166764;23;19919;-93
2022/01/19 01:47:22;;;;;;;;;;;5.40;99.90;;;;;;6142573;23;20577;-93
2022/01/19 01:55:03;;;;;;;;;;;5.30;99.90;;;;;;6126394;23;20403;-93
2022/01/19 01:57:28;;;;;;;;;;;5.40;99.90;;;;;;6166554;23;20597;-95
2022/01/19 01:59:54;;;;;;;;;;;5.40;99.90;;;;;;6141377;23;19936;-93
2022/01/19 02:02:20;;;;;;;;;;;5.30;99.90;;;;;;6143457;23;19920;-94
2022/01/19 02:04:45;;;;;;;;;;;5.40;99.90;;;;;;6145133;23;19919;-94
2022/01/19 02:07:31;;;;;;;;;;;5.40;99.90;;;;;;6142244;23;20483;-92
2022/01/19 02:10:04;;;;;;;;;;;5.40;99.90;;;;;;6142545;23;20285;-92
2022/01/19 02:23:57;;;;;;;;;;;5.30;99.90;;;;;;6131123;23;19995;-94
2022/01/19 02:26:44;;;;;;;;;;;5.30;99.90;;;;;;6134440;23;19912;-92
2022/01/19 02:29:23;;;;;;;;;;;5.40;99.90;;;;;;6149835;23;19920;-94
2022/01/19 02:36:31;;;;;;;;;;;5.30;99.90;;;;;;6141582;23;19913;-94
2022/01/19 02:42:38;;;;;;;;;;;5.30;99.90;;;;;;6146351;23;19939;-94
2022/01/19 02:49:58;;;;;;;;;;;5.30;99.90;;;;;;6135072;23;20023;-94
2022/01/19 02:52:25;;;;;;;;;;;5.30;99.90;;;;;;6133001;23;19979;-94
2022/01/19 02:54:52;;;;;;;;;;;5.30;99.90;;;;;;6143249;23;19924;-94
2022/01/19 02:57:20;;;;;;;;;;;5.30;99.90;;;;;;6144550;23;20222;-93
2022/01/19 03:10:44;;;;;;;;;;;5.30;99.90;;;;;;6143924;23;20233;-95
2022/01/19 03:13:09;;;;;;;;;;;5.20;99.90;;;;;;6141190;23;20347;-95
2022/01/19 03:15:35;;;;;;;;;;;5.20;99.90;;;;;;6141324;23;20385;-93
2022/01/19 03:18:01;;;;;;;;;;;5.20;99.90;;;;;;6139433;23;20360;-95
2022/01/19 03:20:27;;;;;;;;;;;5.20;99.90;;;;;;6128842;23;19916;-92
2022/01/19 03:25:19;;;;;;;;;;;5.30;99.90;;;;;;6140237;23;19964;-95
2022/01/19 03:27:47;;;;;;;;;;;5.20;99.90;;;;;;6142713;23;19935;-94
2022/01/19 03:30:16;;;;;;;;;;;5.20;99.90;;;;;;6141134;23;19917;-94
2022/01/19 03:32:42;;;;;;;;;;;5.20;99.90;;;;;;6145066;23;20143;-94
2022/01/19 03:35:10;;;;;;;;;;;5.20;99.90;;;;;;6143871;23;19964;-91
2022/01/19 03:37:38;;;;;;;;;;;5.20;99.90;;;;;;6144425;23;19968;-92
2022/01/19 03:40:05;;;;;;;;;;;5.20;99.90;;;;;;6140785;23;19932;-91
2022/01/19 03:42:31;;;;;;;;;;;5.30;99.90;;;;;;6140709;23;19909;-90
2022/01/19 03:45:00;;;;;;;;;;;5.30;99.90;;;;;;6141963;23;19912;-93
2022/01/19 03:47:31;;;;;;;;;;;5.20;99.90;;;;;;6141916;23;19909;-92
2022/01/19 03:49:57;;;;;;;;;;;5.30;99.90;;;;;;6142493;23;19918;-93
2022/01/19 03:52:23;;;;;;;;;;;5.30;99.90;;;;;;6142882;23;19999;-93
2022/01/19 03:54:48;;;;;;;;;;;5.30;99.90;;;;;;6142345;23;19915;-92
2022/01/19 03:57:15;;;;;;;;;;;5.20;99.90;;;;;;6130281;23;19919;-91
2022/01/19 03:59:42;;;;;;;;;;;5.20;99.90;;;;;;6141467;23;19920;-91
2022/01/19 04:02:10;;;;;;;;;;;5.20;99.90;;;;;;6129981;23;19913;-91
2022/01/19 04:07:39;;;;;;;;;;;5.20;99.90;;;;;;6116685;23;20361;-92
2022/01/19 04:10:04;;;;;;;;;;;5.20;99.90;;;;;;6103117;23;19912;-93
2022/01/19 04:12:44;;;;;;;;;;;5.20;99.90;;;;;;6087993;23;19908;-93
2022/01/19 04:15:10;;;;;;;;;;;5.20;99.90;;;;;;6098915;23;19920;-94
2022/01/19 04:17:37;;;;;;;;;;;5.20;99.90;;;;;;6150969;23;20296;-93
2022/01/19 04:20:06;;;;;;;;;;;5.20;99.90;;;;;;6113954;23;19912;-93
2022/01/19 04:22:31;;;;;;;;;;;5.20;99.90;;;;;;6125132;23;19912;-94
2022/01/19 04:25:12;;;;;;;;;;;5.20;99.90;;;;;;6105275;23;20597;-92
2022/01/19 04:27:47;;;;;;;;;;;5.20;99.90;;;;;;6105211;23;20004;-91
2022/01/19 04:30:14;;;;;;;;;;;5.20;99.90;;;;;;6140210;23;19991;-91
2022/01/19 04:35:43;;;;;;;;;;;5.20;99.90;;;;;;6088605;23;20249;-90
2022/01/19 05:06:15;;;;;;;;;;;5.10;99.90;;;;;;6118885;23;20233;-89
2022/01/19 05:13:58;;;;;;;;;;;5.10;99.90;;;;;;6144443;23;19984;-88
2022/01/19 05:16:27;;;;;;;;;;;5.00;99.90;;;;;;6167204;23;19916;-89
2022/01/19 05:18:53;;;;;;;;;;;5.00;99.90;;;;;;6142459;23;19987;-88
2022/01/19 05:21:22;;;;;;;;;;;5.00;99.90;;;;;;6144054;23;19913;-88
2022/01/19 05:23:47;;;;;;;;;;;5.00;99.90;;;;;;6135214;23;19931;-88
2022/01/19 05:26:13;;;;;;;;;;;5.00;99.90;;;;;;6142638;23;20236;-88
2022/01/19 05:28:39;;;;;;;;;;;5.00;99.90;;;;;;6134651;23;19935;-89
2022/01/19 05:31:04;;;;;;;;;;;5.00;99.90;;;;;;6145817;23;19912;-88
2022/01/19 05:33:31;;;;;;;;;;;4.90;99.90;;;;;;6142894;23;20481;-89
2022/01/19 05:35:59;;;;;;;;;;;4.90;99.90;;;;;;6165427;23;19909;-91
2022/01/19 05:38:25;;;;;;;;;;;4.90;99.90;;;;;;6141890;23;19935;-88
2022/01/19 05:40:51;;;;;;;;;;;4.90;99.90;;;;;;6143200;23;19909;-88
2022/01/19 05:43:17;;;;;;;;;;;4.90;99.90;;;;;;6168268;23;19920;-89
2022/01/19 05:45:42;;;;;;;;;;;4.90;99.90;;;;;;6141984;23;19971;-89
2022/01/19 05:48:08;;;;;;;;;;;4.90;99.90;;;;;;6169011;23;19913;-90
2022/01/19 05:50:34;;;;;;;;;;;4.90;99.90;;;;;;6166496;23;19971;-89
2022/01/19 05:52:59;;;;;;;;;;;4.90;99.90;;;;;;6146199;23;19913;-89
2022/01/19 05:55:25;;;;;;;;;;;4.90;99.90;;;;;;6144459;23;20668;-89
2022/01/19 05:57:50;;;;;;;;;;;4.90;99.90;;;;;;6167455;23;19929;-88
2022/01/19 06:00:16;;;;;;;;;;;4.80;99.90;;;;;;6142701;23;20337;-89
2022/01/19 06:02:42;;;;;;;;;;;4.90;99.90;;;;;;6142917;23;20448;-89
2022/01/19 06:05:07;;;;;;;;;;;4.90;99.90;;;;;;6141398;23;19913;-90
2022/01/19 06:07:41;;;;;;;;;;;4.80;99.90;;;;;;6144573;23;19959;-89
2022/01/19 06:10:09;;;;;;;;;;;4.80;99.90;;;;;;6142827;23;20353;-89
2022/01/19 06:12:35;;;;;;;;;;;4.80;99.90;;;;;;6141703;23;19912;-87
2022/01/19 06:15:00;;;;;;;;;;;4.80;99.90;;;;;;6142586;23;19920;-87
2022/01/19 06:17:26;;;;;;;;;;;4.80;99.90;;;;;;6143929;23;19916;-87
2022/01/19 06:19:52;;;;;;;;;;;4.80;99.90;;;;;;6143053;23;20318;-89
2022/01/19 06:22:21;;;;;;;;;;;4.80;99.90;;;;;;6142896;23;19912;-89
2022/01/19 06:24:49;;;;;;;;;;;4.80;99.90;;;;;;6128492;23;19916;-89
2022/01/19 06:27:20;;;;;;;;;;;4.80;99.90;;;;;;6139086;23;19913;-90
2022/01/19 06:29:51;;;;;;;;;;;4.80;99.90;;;;;;6126489;23;19959;-90
2022/01/19 06:32:22;;;;;;;;;;;4.90;99.90;;;;;;6100672;23;19939;-90
2022/01/19 06:34:50;;;;;;;;;;;4.90;99.90;;;;;;6076576;23;19909;-89
2022/01/19 06:37:16;;;;;;;;;;;4.80;99.90;;;;;;6137569;23;19919;-90
2022/01/19 06:40:09;;;;;;;;;;;4.80;99.90;;;;;;6140851;23;20279;-89
2022/01/19 06:42:42;;;;;;;;;;;4.90;99.90;;;;;;6159763;23;20258;-90
2022/01/19 06:45:23;;;;;;;;;;;4.80;99.90;;;;;;6105216;23;20474;-91
2022/01/19 06:50:33;;;;;;;;;;;4.80;99.90;;;;;;6115394;23;20481;-93
2022/01/19 06:53:05;;;;;;;;;;;4.80;99.90;;;;;;6099886;23;19913;-92
2022/01/19 06:56:02;;;;;;;;;;;4.80;99.90;;;;;;6130814;23;20421;-93
2022/01/19 06:58:28;;;;;;;;;;;4.80;99.90;;;;;;6167065;23;20218;-88
2022/01/19 07:00:54;;;;;;;;;;;4.80;99.90;;;;;;6142107;23;19919;-88
2022/01/19 07:03:20;;;;;;;;;;;4.80;99.90;;;;;;6141983;23;20270;-89
2022/01/19 07:05:46;;;;;;;;;;;4.80;99.90;;;;;;6142403;23;19975;-88
2022/01/19 07:08:11;;;;;;;;;;;4.80;99.90;;;;;;6142864;23;19912;-88
2022/01/19 07:10:37;;;;;;;;;;;4.70;99.90;;;;;;6143146;23;19980;-88
2022/01/19 07:13:03;;;;;;;;;;;4.70;99.90;;;;;;6140636;23;20399;-88
2022/01/19 07:15:29;;;;;;;;;;;4.70;99.90;;;;;;6140832;23;19964;-89
2022/01/19 07:17:54;;;;;;;;;;;4.60;99.90;;;;;;6141521;23;19916;-89
2022/01/19 07:20:20;;;;;;;;;;;4.70;99.90;;;;;;6141720;23;19916;-91
2022/01/19 07:22:47;;;;;;;;;;;4.60;99.90;;;;;;6143340;23;19913;-91
2022/01/19 07:25:12;;;;;;;;;;;4.60;99.90;;;;;;6128453;23;20230;-91
2022/01/19 07:27:38;;;;;;;;;;;4.60;99.90;;;;;;6139639;23;19924;-91
2022/01/19 07:30:04;;;;;;;;;;;4.50;99.90;;;;;;6140665;23;20260;-92
2022/01/19 07:32:34;;;;;;;;;;;4.50;99.90;;;;;;6141503;23;19909;-91
2022/01/19 07:34:59;;;;;;;;;;;4.50;99.90;;;;;;6141559;23;19913;-91
2022/01/19 07:37:25;;;;;;;;;;;4.40;99.90;;;;;;6142235;23;19920;-93
2022/01/19 07:39:53;;;;;;;;;;;4.40;99.90;;;;;;6142063;23;19999;-94
2022/01/19 07:42:19;;;;;;;;;;;4.30;99.90;;;;;;6116562;23;19919;-91
2022/01/19 07:44:45;;;;;;;;;;;4.20;99.90;;;;;;6141121;23;19921;-89
2022/01/19 07:47:11;;;;;;;;;;;4.10;99.90;;;;;;6141443;23;19917;-91
2022/01/19 07:49:36;;;;;;;;;;;4.00;99.90;;;;;;6141815;23;19920;-91
2022/01/19 07:52:02;;;;;;;;;;;4.00;99.90;;;;;;6140296;23;20106;-91
2022/01/19 07:54:30;;;;;;;;;;;4.10;99.90;;;;;;6141064;23;20272;-91
2022/01/19 07:56:56;;;;;;;;;;;4.10;99.90;;;;;;6129199;23;20447;-93
2022/01/19 07:59:21;;;;;;;;;;;4.10;99.90;;;;;;6144029;23;19923;-91
2022/01/19 08:01:47;;;;;;;;;;;4.10;99.90;;;;;;6165919;23;20297;-89
2022/01/19 08:04:13;;;;;;;;;;;4.10;99.90;;;;;;6140328;23;19920;-92
2022/01/19 08:06:38;;;;;;;;;;;4.00;99.90;;;;;;6139973;23;19959;-91
2022/01/19 08:09:05;;;;;;;;;;;4.00;99.90;;;;;;6141436;23;20193;-90
2022/01/19 08:11:31;;;;;;;;;;;4.00;99.90;;;;;;6140543;23;20144;-92
2022/01/19 08:13:56;;;;;;;;;;;4.00;99.90;;;;;;6140625;23;20352;-91
2022/01/19 08:16:22;;;;;;;;;;;4.00;99.90;;;;;;6141516;23;19912;-91
2022/01/19 08:18:48;;;;;;;;;;;4.00;99.90;;;;;;6143699;23;19928;-93
2022/01/19 08:21:14;;;;;;;;;;;4.00;99.90;;;;;;6141894;23;20572;-92
2022/01/19 08:23:39;;;;;;;;;;;4.00;99.90;;;;;;6143448;23;19912;-92
2022/01/19 08:26:06;;;;;;;;;;;4.00;99.90;;;;;;6143645;23;20304;-92
2022/01/19 08:28:32;;;;;;;;;;;4.00;99.90;;;;;;6144580;23;19913;-89
2022/01/19 08:30:57;;;;;;;;;;;4.10;99.90;;;;;;6142966;23;20218;-89
2022/01/19 08:33:23;;;;;;;;;;;4.00;99.90;;;;;;6144083;23;19924;-90
2022/01/19 08:35:48;;;;;;;;;;;4.00;99.90;;;;;;6167858;23;19913;-89
2022/01/19 08:38:14;;;;;;;;;;;4.10;99.90;;;;;;6144277;23;19917;-89
2022/01/19 08:40:40;;;;;;;;;;;4.10;99.90;;;;;;6145333;23;19909;-91
2022/01/19 08:43:05;;;;;;;;;;;4.00;99.90;;;;;;6145754;23;19928;-91
2022/01/19 08:45:35;;;;;;;;;;;4.00;99.90;;;;;;6147618;23;19944;-91
2022/01/19 08:48:01;;;;;;;;;;;4.00;99.90;;;;;;6138332;23;19994;-90
2022/01/19 08:50:26;;;;;;;;;;;4.00;99.90;;;;;;6144545;23;19955;-90
2022/01/19 08:52:55;;;;;;;;;;;4.00;99.90;;;;;;6145193;23;20025;-92
2022/01/19 08:55:20;;;;;;;;;;;4.00;99.90;;;;;;6146009;23;19959;-91
2022/01/19 08:57:46;;;;;;;;;;;4.00;99.90;;;;;;6169544;23;19909;-88
2022/01/19 09:00:17;;;;;;;;;;;4.00;99.90;;;;;;6145040;23;19912;-89
2022/01/19 09:02:42;;;;;;;;;;;4.00;99.90;;;;;;6144490;23;20421;-91
2022/01/19 09:05:08;;;;;;;;;;;4.00;99.90;;;;;;6143985;23;19913;-90
2022/01/19 09:07:34;;;;;;;;;;;4.00;99.90;;;;;;6144995;23;19920;-90
2022/01/19 09:10:00;;;;;;;;;;;4.00;99.90;;;;;;6170019;23;19988;-90
2022/01/19 09:12:25;;;;;;;;;;;4.00;99.90;;;;;;6143666;23;20579;-90
2022/01/19 09:14:51;;;;;;;;;;;4.00;99.90;;;;;;6146695;23;19963;-90
2022/01/19 09:17:16;;;;;;;;;;;4.10;99.90;;;;;;6143627;23;19908;-90
2022/01/19 09:19:42;;;;;;;;;;;4.20;99.90;;;;;;6145655;23;19943;-89
2022/01/19 09:22:09;;;;;;;;;;;4.20;99.90;;;;;;6144557;23;19919;-90
2022/01/19 09:24:37;;;;;;;;;;;4.40;99.90;;;;;;6144626;23;19913;-92
2022/01/19 09:27:04;;;;;;;;;;;4.40;99.90;;;;;;6167568;23;19960;-90
2022/01/19 09:29:29;;;;;;;;;;;4.50;99.90;;;;;;6142895;23;20319;-90
2022/01/19 09:31:56;;;;;;;;;;;4.60;99.90;;;;;;6143119;23;19973;-91
2022/01/19 09:34:22;;;;;;;;;;;4.70;99.90;;;;;;6145913;23;20627;-91
2022/01/19 09:36:48;;;;;;;;;;;4.70;99.90;;;;;;6142039;23;19909;-89
2022/01/19 09:39:21;;;;;;;;;;;4.60;99.90;;;;;;6143749;23;19917;-90
2022/01/19 09:41:48;;;;;;;;;;;4.60;99.90;;;;;;6143813;23;19912;-88
2022/01/19 09:44:15;;;;;;;;;;;4.50;99.90;;;;;;6144253;23;19925;-89
2022/01/19 09:46:40;;;;;;;;;;;4.50;99.90;;;;;;6144101;23;20330;-89
2022/01/19 09:49:06;;;;;;;;;;;4.60;99.90;;;;;;6145303;23;19971;-90
2022/01/19 09:51:34;;;;;;;;;;;4.60;99.90;;;;;;6145850;23;19920;-91
2022/01/19 09:54:04;;;;;;;;;;;4.60;99.90;;;;;;6170225;23;19931;-90
2022/01/19 09:56:29;;;;;;;;;;;4.60;99.90;;;;;;6143495;23;19990;-90
2022/01/19 09:58:55;;;;;;;;;;;4.70;99.90;;;;;;6143624;23;20289;-91
2022/01/19 10:01:21;;;;;;;;;;;4.80;99.90;;;;;;6142140;23;19936;-91
2022/01/19 10:03:47;;;;;;;;;;;4.80;99.90;;;;;;6145993;23;19917;-89
2022/01/19 10:06:17;;;;;;;;;;;4.90;99.90;;;;;;6145092;23;20061;-90
2022/01/19 10:08:46;;;;;;;;;;;4.80;99.90;;;;;;6131516;23;19991;-91
2022/01/19 10:11:16;;;;;;;;;;;4.80;99.90;;;;;;6167862;23;19917;-90
2022/01/19 10:19:17;;;;;;;;;;;4.80;99.90;;;;;;6132626;23;20278;-89
2022/01/19 10:22:14;;;;;;;;;;;4.80;99.90;;;;;;6143832;23;19912;-89
2022/01/19 10:24:40;;;;;;;;;;;4.80;99.90;;;;;;6096737;23;20401;-90
2022/01/19 10:27:24;;;;;;;;;;;4.70;99.90;;;;;;6168408;23;19937;-91
2022/01/19 10:29:51;;;;;;;;;;;4.70;99.90;;;;;;6158799;23;19909;-91
2022/01/19 10:32:19;;;;;;;;;;;4.70;99.90;;;;;;6144231;23;19913;-89
2022/01/19 10:34:44;;;;;;;;;;;4.60;99.90;;;;;;6143676;23;20322;-87
2022/01/19 10:37:10;;;;;;;;;;;4.60;99.90;;;;;;6143898;23;19919;-88
2022/01/19 10:39:49;;;;;;;;;;;4.50;99.90;;;;;;6140788;23;19944;-90
2022/01/19 10:42:19;;;;;;;;;;;4.50;99.90;;;;;;6143958;23;19913;-89
2022/01/19 10:44:44;;;;;;;;;;;4.40;99.90;;;;;;6143255;23;20007;-89
2022/01/19 10:47:10;;;;;;;;;;;4.40;99.90;;;;;;6145218;23;19908;-91
2022/01/19 10:49:53;;;;;;;;;;;4.40;99.90;;;;;;6143772;23;19909;-92
2022/01/19 10:52:36;;;;;;;;;;;4.40;99.90;;;;;;6142622;23;20040;-90
2022/01/19 10:55:04;;;;;;;;;;;4.40;99.90;;;;;;6143692;23;19920;-92
2022/01/19 10:57:30;;;;;;;;;;;4.50;99.90;;;;;;6143491;23;19917;-89
2022/01/19 11:00:09;;;;;;;;;;;4.30;99.90;;;;;;6143028;23;19927;-93
2022/01/19 11:02:40;;;;;;;;;;;4.20;99.90;;;;;;6144568;23;19923;-92
2022/01/19 11:05:06;;;;;;;;;;;4.30;99.90;;;;;;6133833;23;19983;-92
2022/01/19 11:07:32;;;;;;;;;;;4.20;99.90;;;;;;6117555;23;19936;-91
2022/01/19 11:10:09;;;;;;;;;;;4.20;99.90;;;;;;6154120;23;20325;-90
2022/01/19 11:12:45;;;;;;;;;;;4.20;99.90;;;;;;6098054;23;19908;-92
2022/01/19 11:15:16;;;;;;;;;;;4.20;99.90;;;;;;6119091;23;20341;-90
2022/01/19 11:17:41;;;;;;;;;;;4.00;99.90;;;;;;6164982;23;19918;-89
2022/01/19 11:20:17;;;;;;;;;;;4.00;99.90;;;;;;6137836;23;19967;-91
2022/01/19 11:22:50;;;;;;;;;;;3.90;99.90;;;;;;6140355;23;20313;-90
2022/01/19 11:25:18;;;;;;;;;;;4.00;99.90;;;;;;6142446;23;19920;-90
2022/01/19 11:27:45;;;;;;;;;;;3.90;99.90;;;;;;6142552;23;20253;-91
2022/01/19 11:30:11;;;;;;;;;;;3.80;99.90;;;;;;6144744;23;20488;-92
2022/01/19 11:32:36;;;;;;;;;;;3.80;99.90;;;;;;6166757;23;19979;-92
2022/01/19 11:35:03;;;;;;;;;;;3.80;99.90;;;;;;6167762;23;19909;-90
2022/01/19 11:37:39;;;;;;;;;;;3.70;99.90;;;;;;6142285;23;20277;-90
2022/01/19 11:40:04;;;;;;;;;;;3.70;99.90;;;;;;6142561;23;20403;-89
2022/01/19 11:42:30;;;;;;;;;;;3.70;99.90;;;;;;6167236;23;19909;-90
2022/01/19 11:44:55;;;;;;;;;;;3.80;99.90;;;;;;6142278;23;19921;-89
2022/01/19 11:47:29;;;;;;;;;;;3.90;99.90;;;;;;6144145;23;20245;-92
2022/01/19 11:49:57;;;;;;;;;;;3.80;99.90;;;;;;6143057;23;19932;-91
2022/01/19 11:52:26;;;;;;;;;;;3.90;99.90;;;;;;6145948;23;20217;-92
2022/01/19 11:55:08;;;;;;;;;;;3.70;99.90;;;;;;6143223;23;19916;-91
2022/01/19 11:57:36;;;;;;;;;;;3.70;99.90;;;;;;6166953;23;20245;-92
2022/01/19 12:00:06;;;;;;;;;;;3.60;99.90;;;;;;6140618;23;19927;-91
2022/01/19 12:02:36;;;;;;;;;;;3.60;99.90;;;;;;6143897;23;19924;-92
2022/01/19 12:05:04;;;;;;;;;;;3.60;99.90;;;;;;6133933;23;20412;-89
2022/01/19 12:07:33;;;;;;;;;;;3.50;99.90;;;;;;6140945;23;19913;-90
2022/01/19 12:09:58;;;;;;;;;;;3.50;99.90;;;;;;6143981;23;19959;-92
2022/01/19 12:12:28;;;;;;;;;;;3.40;99.90;;;;;;6143355;23;19913;-90
2022/01/19 12:14:57;;;;;;;;;;;3.30;99.90;;;;;;6146308;23;19931;-90
2022/01/19 12:17:26;;;;;;;;;;;3.40;99.90;;;;;;6142044;23;19909;-89
2022/01/19 12:19:53;;;;;;;;;;;3.40;99.90;;;;;;6145982;23;19975;-92
2022/01/19 12:22:20;;;;;;;;;;;3.30;99.90;;;;;;6143522;23;19918;-89
2022/01/19 12:24:56;;;;;;;;;;;3.40;99.90;;;;;;6145927;23;19912;-94
2022/01/19 12:27:23;;;;;;;;;;;3.30;99.90;;;;;;6142818;23;19916;-91
2022/01/19 12:29:50;;;;;;;;;;;3.40;99.90;;;;;;6145166;23;19947;-91
2022/01/19 12:32:16;;;;;;;;;;;3.50;99.90;;;;;;6143301;23;19913;-89
2022/01/19 12:34:45;;;;;;;;;;;3.50;99.90;;;;;;6167261;23;19952;-91
2022/01/19 12:37:12;;;;;;;;;;;3.60;99.90;;;;;;6144051;23;19920;-92
2022/01/19 12:39:39;;;;;;;;;;;3.50;99.90;;;;;;6143538;23;20541;-93
2022/01/19 12:42:14;;;;;;;;;;;3.50;99.90;;;;;;6143375;23;20262;-94
2022/01/19 12:44:48;;;;;;;;;;;3.50;99.90;;;;;;6144224;23;19921;-90
2022/01/19 12:47:28;;;;;;;;;;;3.60;99.90;;;;;;6145921;23;19913;-91
2022/01/19 12:50:28;;;;;;;;;;;3.60;99.90;;;;;;6156157;23;19917;-92
2022/01/19 12:52:55;;;;;;;;;;;3.60;99.90;;;;;;6169500;23;19967;-92
2022/01/19 12:55:26;;;;;;;;;;;3.70;99.90;;;;;;6133970;23;20120;-91
2022/01/19 12:57:52;;;;;;;;;;;3.70;99.90;;;;;;6164418;23;19947;-90
2022/01/19 13:00:20;;;;;;;;;;;3.70;99.90;;;;;;6143019;23;20253;-91
2022/01/19 13:02:45;;;;;;;;;;;3.70;99.90;;;;;;6144348;23;19991;-90
2022/01/19 13:05:14;;;;;;;;;;;3.70;99.90;;;;;;6129013;23;19943;-92
2022/01/19 13:07:40;;;;;;;;;;;3.60;99.90;;;;;;6143926;23;20282;-91
2022/01/19 13:10:40;;;;;;;;;;;3.80;99.90;;;;;;6143523;23;19920;-90
2022/01/19 13:13:13;;;;;;;;;;;3.70;99.90;;;;;;6142615;23;19928;-92
2022/01/19 13:15:42;;;;;;;;;;;3.60;99.90;;;;;;6144206;23;20364;-91
2022/01/19 13:18:08;;;;;;;;;;;3.60;99.90;;;;;;6166957;23;19947;-91
2022/01/19 13:20:33;;;;;;;;;;;3.70;99.90;;;;;;6142126;23;19913;-92
2022/01/19 13:22:59;;;;;;;;;;;3.70;99.90;;;;;;6141847;23;20161;-91
2022/01/19 13:25:28;;;;;;;;;;;3.60;99.90;;;;;;6142824;23;19936;-91
2022/01/19 13:27:59;;;;;;;;;;;3.60;99.90;;;;;;6142412;23;19959;-91
2022/01/19 13:30:27;;;;;;;;;;;3.60;99.90;;;;;;6141874;23;20254;-89
2022/01/19 13:32:53;;;;;;;;;;;3.60;99.90;;;;;;6144033;23;20498;-93
2022/01/19 13:35:23;;;;;;;;;;;3.60;99.90;;;;;;6131938;23;19908;-93
2022/01/19 13:37:58;;;;;;;;;;;3.60;99.90;;;;;;6134384;23;19919;-92
2022/01/19 13:40:23;;;;;;;;;;;3.60;99.90;;;;;;6141580;23;19981;-92
2022/01/19 13:42:54;;;;;;;;;;;3.60;99.90;;;;;;6168314;23;19995;-90
2022/01/19 13:45:31;;;;;;;;;;;3.60;99.90;;;;;;6139456;23;19913;-92
2022/01/19 13:50:47;;;;;;;;;;;3.70;99.90;;;;;;6144421;23;19919;-92
2022/01/19 13:53:15;;;;;;;;;;;3.70;99.90;;;;;;6144575;23;19909;-90
2022/01/19 13:55:40;;;;;;;;;;;3.80;99.90;;;;;;6139821;23;19909;-91
2022/01/19 17:22:54;;;;;;;;;;;4.30;99.90;;;;;;6098929;23;19948;-90
2022/01/19 17:25:23;;;;;;;;;;;4.40;99.90;;;;;;6071734;23;19917;-89
2022/01/19 17:27:54;;;;;;;;;;;4.30;99.90;;;;;;6067690;23;19919;-88
2022/01/19 17:30:21;;;;;;;;;;;4.30;99.90;;;;;;6114505;23;19916;-89
2022/01/19 17:32:47;;;;;;;;;;;4.30;99.90;;;;;;6114072;23;20293;-90
2022/01/19 17:35:13;;;;;;;;;;;4.30;99.90;;;;;;6114614;23;19917;-88
2022/01/19 17:37:40;;;;;;;;;;;4.30;99.90;;;;;;6114763;23;19913;-89
2022/01/19 17:40:09;;;;;;;;;;;4.30;99.90;;;;;;6114696;23;19916;-90
2022/01/19 17:42:37;;;;;;;;;;;4.30;99.90;;;;;;6114796;23;19917;-89
2022/01/19 17:45:08;;;;;;;;;;;4.30;99.90;;;;;;6113259;23;20302;-91
2022/01/19 17:47:48;;;;;;;;;;;4.30;99.90;;;;;;6091559;23;20323;-90
2022/01/19 17:52:58;;;;;;;;;;;4.30;99.90;;;;;;6101426;23;19918;-91
2022/01/19 17:55:23;;;;;;;;;;;4.30;99.90;;;;;;6078914;23;19976;-90
2022/01/19 17:57:49;;;;;;;;;;;4.30;99.90;;;;;;6139612;23;20003;-89
2022/01/19 18:00:17;;;;;;;;;;;4.30;99.90;;;;;;6112134;23;20330;-89
2022/01/19 18:02:46;;;;;;;;;;;4.20;99.90;;;;;;6099354;23;19944;-89
2022/01/19 18:05:12;;;;;;;;;;;4.20;99.90;;;;;;6051161;23;20282;-90
2022/01/19 18:07:46;;;;;;;;;;;4.20;99.90;;;;;;6121765;23;19980;-88
2022/01/19 18:10:39;;;;;;;;;;;4.20;99.90;;;;;;6081881;23;20200;-90
2022/01/19 18:13:04;;;;;;;;;;;4.20;99.90;;;;;;5993894;23;19922;-87
2022/01/19 18:15:30;;;;;;;;;;;4.20;99.90;;;;;;6060781;23;20237;-87
2022/01/19 18:18:04;;;;;;;;;;;4.20;99.90;;;;;;6113802;23;19913;-88
2022/01/19 18:20:49;;;;;;;;;;;;;;;;;;;;;
2022/01/19 18:23:33;;;;;;;;;;;4.20;99.90;;;;;;6086299;23;19917;-87
2022/01/19 18:26:36;;;;;;;;;;;4.30;99.90;;;;;;6071365;23;19957;-89
2022/01/19 18:29:01;;;;;;;;;;;4.20;99.90;;;;;;6080305;23;19926;-89
2022/01/19 18:31:27;;;;;;;;;;;4.20;99.90;;;;;;6089275;23;19912;-89
2022/01/19 18:33:52;;;;;;;;;;;4.20;99.90;;;;;;6113222;23;19936;-88
2022/01/19 18:36:18;;;;;;;;;;;4.20;99.90;;;;;;6137798;23;20318;-87
2022/01/19 18:38:49;;;;;;;;;;;4.20;99.90;;;;;;6103793;23;19976;-88
2022/01/19 18:41:17;;;;;;;;;;;4.20;99.90;;;;;;6132406;23;20365;-90
2022/01/19 18:43:43;;;;;;;;;;;4.20;99.90;;;;;;6102896;23;19913;-88
2022/01/19 18:46:11;;;;;;;;;;;4.20;99.90;;;;;;6110138;23;19919;-89
2022/01/19 18:51:55;;;;;;;;;;;4.20;99.90;;;;;;6047735;23;19914;-88
2022/01/19 18:54:51;;;;;;;;;;;4.20;99.90;;;;;;6027241;23;20335;-88
2022/01/19 18:57:25;;;;;;;;;;;4.20;99.90;;;;;;6053618;23;20056;-87
2022/01/19 19:00:22;;;;;;;;;;;4.20;99.90;;;;;;6115203;23;19920;-89
2022/01/19 19:10:11;;;;;;;;;;;4.20;99.90;;;;;;5969055;23;20009;-87
2022/01/19 19:12:29;;;;;;;;;;;4.20;99.90;;;;;;6025167;23;19913;-88
2022/01/19 19:15:22;;;;;;;;;;;;;;;;;;;;;
2022/01/19 19:18:07;;;;;;;;;;;;;;;;;;;;;
2022/01/19 19:20:33;;;;;;;;;;;4.30;99.90;;;;;;6081755;23;21334;-88
2022/01/19 19:26:38;;;;;;;;;;;4.20;99.90;;;;;;5995431;23;20450;-88
2022/01/19 19:29:17;;;;;;;;;;;4.30;99.90;;;;;;5997284;23;19950;-89
2022/01/19 19:31:42;;;;;;;;;;;4.20;99.90;;;;;;6075204;23;19913;-89
2022/01/19 19:34:08;;;;;;;;;;;4.20;99.90;;;;;;6096571;23;19963;-88
2022/01/19 19:36:34;;;;;;;;;;;4.20;99.90;;;;;;6093605;23;19988;-88
2022/01/19 20:04:14;;;;;;;;;;;4.10;99.90;;;;;;6087174;23;20001;-89
2022/01/19 20:06:53;;;;;;;;;;;4.20;99.90;;;;;;6037730;23;20983;-89
2022/01/19 20:09:37;;;;;;;;;;;4.20;99.90;;;;;;6048190;23;19908;-90
2022/01/19 20:12:05;;;;;;;;;;;4.10;99.90;;;;;;6074672;23;19917;-89
2022/01/19 20:14:31;;;;;;;;;;;4.20;99.90;;;;;;6116156;23;20002;-90
2022/01/19 20:16:57;;;;;;;;;;;4.10;99.90;;;;;;6104983;23;20213;-90
2022/01/19 20:19:32;;;;;;;;;;;4.10;99.90;;;;;;6093040;23;20321;-89
2022/01/19 20:22:26;;;;;;;;;;;4.10;99.90;;;;;;6072501;23;19932;-90
2022/01/19 20:25:11;;;;;;;;;;;4.10;99.90;;;;;;6066292;23;19940;-89
2022/01/19 20:27:42;;;;;;;;;;;4.10;99.90;;;;;;6108097;23;19916;-89